Terminal Aerodrome Forecast
Issued by NWS

Current Version | Previous Version | Graphics & Text | Print | Product List | Glossary On
Versions: 1 2 3 4 5 6 7 8 9 10 11 12 13 14 15 16 17 18 19 20 21 22 23 24 25
784
FTUS41 KRLX 291120
TAFCKB
TAF
KCKB 291120Z 2912/3012 08004KT P6SM BKN040
     FM291600 11007KT P6SM SHRA VCTS BKN040CB
     FM292100 10009KT 6SM SHRA VCTS BKN030CB
     FM300300 09009KT 3SM SHRA SCT008 BKN015=

USA.gov is the U.S. government's official web portal to all federal, state and local government web resources and services.